Time;durP1;ratioP1;P1;durP2;ratioP2;P2;SDS_P1;SDS_P2;PMS_P1;PMS_P2;Temp;Humidity;BMP_temperature;BMP_pressure;BME280_temperature;BME280_humidity;BME280_pressure;Samples;Min_cycle;Max_cycle;Signal;HPM_P1;HPM_P2
2021/07/24 00:01:08;;;;;;;23.70;21.40;;;20.30;99.90;;;;;;5012236;28;20425;-66
2021/07/24 00:03:34;;;;;;;35.33;31.67;;;20.30;99.90;;;;;;5012048;28;20551;-66
2021/07/24 00:06:00;;;;;;;23.90;21.50;;;20.20;99.90;;;;;;5012223;28;20613;-66
2021/07/24 00:08:26;;;;;;;23.57;21.10;;;20.30;99.90;;;;;;5011895;28;20171;-66
2021/07/24 00:10:52;;;;;;;21.70;19.43;;;20.20;99.90;;;;;;5011996;28;20578;-66
2021/07/24 00:13:17;;;;;;;21.73;19.67;;;20.10;99.90;;;;;;5011900;28;20234;-66
2021/07/24 00:15:43;;;;;;;21.60;19.53;;;20.10;99.90;;;;;;5012185;28;20167;-66
2021/07/24 00:18:09;;;;;;;22.70;20.50;;;20.10;99.90;;;;;;5012040;28;20174;-66
2021/07/24 00:20:34;;;;;;;20.60;18.60;;;20.10;99.90;;;;;;5011830;28;20530;-66
2021/07/24 00:23:00;;;;;;;17.97;16.57;;;20.20;99.90;;;;;;5011983;28;20182;-66
2021/07/24 00:25:26;;;;;;;18.87;17.00;;;20.20;99.90;;;;;;5012047;28;20532;-66
2021/07/24 00:27:52;;;;;;;19.10;17.13;;;20.20;99.90;;;;;;5011805;28;20179;-66
2021/07/24 00:30:17;;;;;;;17.60;16.20;;;20.10;99.90;;;;;;5011625;28;20457;-66
2021/07/24 00:32:43;;;;;;;19.73;17.90;;;20.10;99.90;;;;;;5011901;28;20171;-66
2021/07/24 00:35:08;;;;;;;18.37;16.67;;;20.00;99.90;;;;;;5011918;28;20190;-66
2021/07/24 00:37:34;;;;;;;16.70;15.10;;;20.00;99.90;;;;;;5011861;28;20177;-66
2021/07/24 00:40:00;;;;;;;18.27;16.40;;;20.00;99.90;;;;;;5011639;28;20230;-66
2021/07/24 00:42:30;;;;;;;17.90;16.30;;;19.90;99.90;;;;;;5011657;28;20175;-66
2021/07/24 00:45:03;;;;;;;18.40;16.60;;;19.90;99.90;;;;;;5011993;28;20199;-66
2021/07/24 00:47:36;;;;;;;20.50;18.40;;;19.90;99.90;;;;;;5011664;28;20414;-66
2021/07/24 00:50:02;;;;;;;19.07;17.37;;;19.90;99.90;;;;;;5000664;28;20466;-66
2021/07/24 00:52:29;;;;;;;18.60;16.80;;;19.90;99.90;;;;;;4992192;28;20419;-66
2021/07/24 00:54:55;;;;;;;18.23;16.63;;;19.90;99.90;;;;;;4974551;28;20438;-66
2021/07/24 00:57:20;;;;;;;19.40;17.53;;;19.90;99.90;;;;;;4992080;28;20445;-66
2021/07/24 00:59:46;;;;;;;18.63;16.93;;;19.80;99.90;;;;;;4991859;28;20176;-66
2021/07/24 01:02:11;;;;;;;18.03;16.20;;;19.80;99.90;;;;;;4992252;28;20176;-66
2021/07/24 01:04:37;;;;;;;20.40;17.70;;;19.90;99.90;;;;;;4994077;28;20207;-66
2021/07/24 01:07:05;;;;;;;18.60;16.60;;;19.90;99.90;;;;;;4995747;28;20168;-66
2021/07/24 01:09:32;;;;;;;20.60;17.13;;;19.80;99.90;;;;;;4995221;28;20168;-66
2021/07/24 01:11:58;;;;;;;17.10;15.50;;;19.80;99.90;;;;;;4995698;28;20426;-66
2021/07/24 01:14:23;;;;;;;19.30;17.40;;;19.80;99.90;;;;;;4995469;28;20794;-66
2021/07/24 01:16:49;;;;;;;17.40;15.70;;;19.70;99.90;;;;;;4995592;28;20936;-66
2021/07/24 01:19:15;;;;;;;19.27;17.40;;;19.70;99.90;;;;;;4995170;28;20588;-66
2021/07/24 01:21:41;;;;;;;16.97;15.37;;;19.70;99.90;;;;;;4995481;28;20181;-66
2021/07/24 01:24:06;;;;;;;18.20;16.50;;;19.70;99.90;;;;;;4995231;28;20947;-66
2021/07/24 01:26:35;;;;;;;20.23;15.13;;;19.70;99.90;;;;;;4995672;28;20175;-66
2021/07/24 01:29:01;;;;;;;17.70;15.90;;;19.60;99.90;;;;;;4995102;28;20171;-66
2021/07/24 01:31:27;;;;;;;19.07;16.60;;;19.50;99.90;;;;;;4995275;28;20513;-66
2021/07/24 01:33:52;;;;;;;17.57;15.87;;;19.50;99.90;;;;;;4995179;28;20851;-66
2021/07/24 01:36:18;;;;;;;19.10;17.30;;;19.50;99.90;;;;;;4995289;28;20171;-66
2021/07/24 01:38:43;;;;;;;17.43;15.83;;;19.50;99.90;;;;;;4994721;28;20179;-66
2021/07/24 01:41:12;;;;;;;16.77;15.20;;;19.50;99.90;;;;;;4995128;28;20167;-66
2021/07/24 01:43:38;;;;;;;21.90;15.97;;;19.50;99.90;;;;;;4994919;28;20198;-66
2021/07/24 01:46:04;;;;;;;17.20;15.70;;;19.60;99.90;;;;;;4995036;28;20501;-66
2021/07/24 01:53:43;;;;;;;18.40;16.63;;;19.70;99.90;;;;;;5014658;28;20441;-66
2021/07/24 01:56:10;;;;;;;18.47;16.67;;;19.60;99.90;;;;;;5014462;28;20789;-66
2021/07/24 01:58:36;;;;;;;20.13;17.17;;;19.60;99.90;;;;;;5014009;28;20418;-66
2021/07/24 02:01:05;;;;;;;17.07;15.50;;;19.70;99.90;;;;;;5014306;28;20460;-66
2021/07/24 02:03:42;;;;;;;15.57;14.00;;;19.60;99.90;;;;;;5013850;28;20568;-66
2021/07/24 02:06:16;;;;;;;16.23;14.63;;;19.70;99.90;;;;;;5014270;28;20421;-66
2021/07/24 02:08:45;;;;;;;17.53;15.93;;;19.70;99.90;;;;;;5013963;28;20472;-66
2021/07/24 02:11:12;;;;;;;16.70;15.10;;;19.80;99.90;;;;;;5014138;28;20462;-66
2021/07/24 02:13:38;;;;;;;19.10;17.10;;;19.70;99.90;;;;;;5013957;28;20525;-66
2021/07/24 02:16:07;;;;;;;17.50;15.60;;;19.80;99.90;;;;;;5013380;28;20488;-66
2021/07/24 02:18:33;;;;;;;17.10;15.40;;;19.80;99.90;;;;;;5013730;28;20171;-66
2021/07/24 02:21:01;;;;;;;18.07;16.47;;;19.80;99.90;;;;;;5013881;28;20473;-66
2021/07/24 02:23:27;;;;;;;17.10;15.50;;;19.80;99.90;;;;;;5013872;28;20444;-66
2021/07/24 02:25:52;;;;;;;16.37;14.63;;;19.90;99.90;;;;;;5013802;28;20428;-66
2021/07/24 02:28:18;;;;;;;17.63;15.83;;;19.90;99.90;;;;;;5013738;28;20422;-66
2021/07/24 02:30:44;;;;;;;20.50;15.50;;;19.90;99.90;;;;;;5013379;28;20257;-66
2021/07/24 02:33:10;;;;;;;18.17;15.70;;;19.80;99.90;;;;;;5013598;28;20468;-66
2021/07/24 02:35:35;;;;;;;17.20;15.50;;;19.80;99.90;;;;;;5013589;28;20221;-66
2021/07/24 02:38:01;;;;;;;16.33;14.87;;;19.90;99.90;;;;;;5013615;28;20167;-66
2021/07/24 02:40:27;;;;;;;16.30;14.90;;;20.00;99.90;;;;;;5013329;28;20167;-66
2021/07/24 02:42:54;;;;;;;18.57;15.53;;;19.90;99.90;;;;;;5013568;28;20269;-66
2021/07/24 02:45:20;;;;;;;18.80;16.90;;;19.80;99.90;;;;;;5013337;28;20167;-66
2021/07/24 02:47:46;;;;;;;19.40;17.40;;;19.80;99.90;;;;;;5013437;28;20439;-66
2021/07/24 02:50:11;;;;;;;15.87;14.47;;;19.80;99.90;;;;;;4983338;28;20203;-66
2021/07/24 02:52:37;;;;;;;21.10;18.40;;;19.90;99.90;;;;;;4993803;28;20251;-66
2021/07/24 02:55:03;;;;;;;18.57;16.57;;;19.90;99.90;;;;;;4993630;28;20191;-66
2021/07/24 02:57:28;;;;;;;17.83;16.33;;;19.90;99.90;;;;;;4993676;28;20179;-66
2021/07/24 02:59:53;;;;;;;18.60;16.90;;;19.90;99.90;;;;;;4993198;28;20203;-66
2021/07/24 03:02:19;;;;;;;17.53;15.93;;;19.90;99.90;;;;;;4994816;28;20543;-66
2021/07/24 03:04:45;;;;;;;21.73;16.23;;;19.90;99.90;;;;;;5012947;28;20199;-66
2021/07/24 03:07:11;;;;;;;16.43;14.93;;;19.90;99.90;;;;;;5012931;28;20640;-66
2021/07/24 03:09:37;;;;;;;15.73;14.23;;;19.90;99.90;;;;;;5012753;28;20875;-66
2021/07/24 03:12:04;;;;;;;19.37;15.20;;;19.90;99.90;;;;;;5012947;28;20567;-66
2021/07/24 03:14:29;;;;;;;18.00;16.10;;;19.80;99.90;;;;;;5012730;28;20444;-66
2021/07/24 03:16:55;;;;;;;20.13;18.33;;;19.70;99.90;;;;;;5012944;28;20429;-66
2021/07/24 03:19:20;;;;;;;16.43;14.83;;;19.70;99.90;;;;;;5012701;28;20198;-66
2021/07/24 03:21:46;;;;;;;18.23;16.63;;;19.70;99.90;;;;;;5011914;28;20666;-66
2021/07/24 03:24:11;;;;;;;18.87;16.90;;;19.70;99.90;;;;;;5012333;28;20187;-66
2021/07/24 03:26:39;;;;;;;18.77;15.63;;;19.80;99.90;;;;;;5011714;28;20325;-66
2021/07/24 03:29:05;;;;;;;17.20;15.70;;;19.80;99.90;;;;;;5011966;28;20174;-66
2021/07/24 03:31:31;;;;;;;20.70;18.60;;;19.80;99.90;;;;;;5012472;28;20453;-66
2021/07/24 03:33:56;;;;;;;19.17;17.37;;;19.80;99.90;;;;;;5012620;28;20194;-66
2021/07/24 03:36:22;;;;;;;18.00;16.30;;;19.70;99.90;;;;;;5012560;28;20175;-66
2021/07/24 03:38:47;;;;;;;18.17;16.47;;;19.70;99.90;;;;;;5012320;28;20541;-66
2021/07/24 03:41:13;;;;;;;16.60;14.90;;;19.70;99.90;;;;;;5012493;28;20576;-66
2021/07/24 03:43:38;;;;;;;18.80;17.00;;;19.60;99.90;;;;;;5012429;28;20205;-66
2021/07/24 03:46:13;;;;;;;17.93;16.23;;;19.60;99.90;;;;;;5012397;28;20175;-66
2021/07/24 03:48:38;;;;;;;17.10;15.50;;;19.50;99.90;;;;;;4994514;28;20182;-66
2021/07/24 03:51:04;;;;;;;17.40;15.63;;;19.50;99.90;;;;;;4993059;28;20845;-66
2021/07/24 03:53:29;;;;;;;19.13;17.37;;;19.50;99.90;;;;;;5002686;28;20233;-66
2021/07/24 03:55:55;;;;;;;18.50;16.70;;;19.60;99.90;;;;;;5012480;28;20179;-66
2021/07/24 03:58:20;;;;;;;17.67;16.07;;;19.50;99.90;;;;;;5012126;28;20175;-66
2021/07/24 04:00:48;;;;;;;18.70;16.90;;;19.50;99.90;;;;;;5012038;28;20179;-66
2021/07/24 04:03:13;;;;;;;20.27;18.07;;;19.50;99.90;;;;;;5012472;28;20210;-65
2021/07/24 04:05:42;;;;;;;18.60;16.80;;;19.40;99.90;;;;;;5011786;28;20525;-65
2021/07/24 04:08:08;;;;;;;20.63;18.53;;;19.50;99.90;;;;;;5012178;28;20181;-65
2021/07/24 04:10:35;;;;;;;19.47;17.47;;;19.50;99.90;;;;;;5011904;28;20445;-66
2021/07/24 04:13:02;;;;;;;17.73;16.03;;;19.60;99.90;;;;;;5012039;28;20420;-66
2021/07/24 04:15:27;;;;;;;16.17;14.77;;;19.70;99.90;;;;;;4994406;28;20435;-65
2021/07/24 04:17:53;;;;;;;20.67;18.60;;;19.70;99.90;;;;;;5001337;28;20773;-66
2021/07/24 04:20:21;;;;;;;21.30;19.30;;;19.70;99.90;;;;;;4992364;28;20254;-66
2021/07/24 04:22:47;;;;;;;20.90;18.90;;;19.80;99.90;;;;;;4992487;28;20589;-66
2021/07/24 04:25:13;;;;;;;21.97;19.67;;;19.80;99.90;;;;;;4992382;28;20446;-66
2021/07/24 04:27:40;;;;;;;22.10;19.90;;;19.80;99.90;;;;;;4992325;28;20427;-65
2021/07/24 04:30:06;;;;;;;20.27;18.03;;;19.80;99.90;;;;;;4991988;28;20623;-66
2021/07/24 04:32:32;;;;;;;16.20;14.70;;;20.00;99.90;;;;;;4992336;28;20445;-66
2021/07/24 04:34:57;;;;;;;17.83;16.10;;;20.10;99.90;;;;;;4992286;28;20567;-65
2021/07/24 04:37:23;;;;;;;17.60;16.00;;;20.10;99.90;;;;;;4992686;28;20168;-66
2021/07/24 04:39:48;;;;;;;18.00;16.20;;;20.10;99.90;;;;;;4994647;28;20193;-66
2021/07/24 04:42:14;;;;;;;18.63;16.83;;;20.20;99.90;;;;;;4978746;28;20172;-65
2021/07/24 04:44:39;;;;;;;18.47;16.53;;;20.10;99.90;;;;;;4996006;28;20191;-66
2021/07/24 04:47:05;;;;;;;18.90;16.93;;;20.00;99.90;;;;;;4996361;28;20680;-65
2021/07/24 04:49:32;;;;;;;19.90;18.00;;;19.70;99.90;;;;;;5002064;28;20179;-66
2021/07/24 04:51:59;;;;;;;16.27;14.67;;;19.50;99.90;;;;;;5015528;28;20199;-65
2021/07/24 04:54:26;;;;;;;17.10;15.60;;;19.50;99.90;;;;;;5015460;28;20441;-66
2021/07/24 04:56:51;;;;;;;18.40;16.63;;;19.70;99.90;;;;;;5015468;28;20417;-65
2021/07/24 04:59:17;;;;;;;20.67;18.47;;;19.70;99.90;;;;;;4997414;28;20532;-66
2021/07/24 05:01:43;;;;;;;18.80;16.53;;;19.80;99.90;;;;;;5015848;28;20573;-66
2021/07/24 05:04:10;;;;;;;17.20;15.60;;;19.70;99.90;;;;;;5015102;28;20464;-66
2021/07/24 05:06:36;;;;;;;17.07;15.50;;;19.70;99.90;;;;;;5015421;28;20178;-66
2021/07/24 05:09:04;;;;;;;17.70;15.93;;;19.80;99.90;;;;;;5015387;28;20429;-65
2021/07/24 05:11:30;;;;;;;19.57;17.83;;;19.80;99.90;;;;;;5015120;28;20966;-66
2021/07/24 05:13:55;;;;;;;19.93;18.10;;;19.80;99.90;;;;;;5015293;28;20495;-65
2021/07/24 05:16:21;;;;;;;18.40;16.77;;;19.90;99.90;;;;;;5015233;28;20249;-66
2021/07/24 05:18:46;;;;;;;17.40;15.60;;;20.00;99.90;;;;;;5014864;28;20220;-66
2021/07/24 05:21:16;;;;;;;18.13;16.53;;;19.90;99.90;;;;;;5015117;28;20183;-66
2021/07/24 05:23:42;;;;;;;19.70;17.90;;;20.00;99.90;;;;;;5015078;28;20333;-66
2021/07/24 05:26:13;;;;;;;18.73;17.03;;;20.00;99.90;;;;;;5014880;28;20985;-66
2021/07/24 05:28:38;;;;;;;20.23;15.17;;;20.00;99.90;;;;;;4997036;28;20218;-66
2021/07/24 05:31:04;;;;;;;16.23;14.83;;;20.20;99.90;;;;;;4996575;28;20485;-66
2021/07/24 05:33:29;;;;;;;16.70;15.10;;;20.40;99.90;;;;;;4995124;28;20614;-66
2021/07/24 05:35:55;;;;;;;16.23;14.53;;;20.60;99.90;;;;;;4986356;28;20190;-66
2021/07/24 05:38:20;;;;;;;16.50;15.03;;;20.90;99.90;;;;;;4977536;28;20175;-65
2021/07/24 05:40:46;;;;;;;16.63;15.00;;;21.20;99.90;;;;;;4997406;28;20210;-65
2021/07/24 05:43:11;;;;;;;17.63;15.83;;;21.40;99.90;;;;;;5014617;28;20207;-65
2021/07/24 05:45:37;;;;;;;17.80;16.20;;;21.70;99.90;;;;;;5014640;28;20664;-66
2021/07/24 05:48:02;;;;;;;17.23;15.60;;;22.00;99.90;;;;;;5014510;28;20229;-65
2021/07/24 05:50:28;;;;;;;17.60;15.83;;;22.30;99.90;;;;;;4998926;28;20203;-65
2021/07/24 05:52:53;;;;;;;17.10;15.50;;;22.40;99.90;;;;;;5022980;28;20208;-66
2021/07/24 05:55:19;;;;;;;18.40;16.90;;;22.70;99.90;;;;;;5022814;28;20166;-66
2021/07/24 05:57:44;;;;;;;16.17;14.77;;;22.60;99.90;;;;;;5034188;28;20174;-66
2021/07/24 06:00:10;;;;;;;19.13;15.57;;;22.50;99.90;;;;;;5018953;28;20171;-66
2021/07/24 06:02:36;;;;;;;16.97;15.30;;;22.50;99.90;;;;;;5014209;28;20695;-66
2021/07/24 06:05:02;;;;;;;17.27;15.73;;;22.40;99.90;;;;;;5014097;28;20457;-65
2021/07/24 06:07:27;;;;;;;16.37;14.97;;;22.30;99.90;;;;;;5014229;28;20616;-65
2021/07/24 06:09:53;;;;;;;18.63;16.70;;;22.20;99.90;;;;;;5013741;28;20183;-64
2021/07/24 06:12:18;;;;;;;16.27;14.80;;;22.00;99.90;;;;;;5013671;28;20178;-64
2021/07/24 06:14:44;;;;;;;18.27;16.40;;;22.00;99.90;;;;;;5014153;28;20207;-63
2021/07/24 06:17:10;;;;;;;18.67;16.87;;;21.90;99.90;;;;;;5014060;28;20178;-65
2021/07/24 06:19:35;;;;;;;16.73;15.23;;;21.90;99.90;;;;;;5005949;28;20439;-65
2021/07/24 06:22:01;;;;;;;17.87;16.27;;;21.90;99.90;;;;;;4976882;28;20183;-65
2021/07/24 06:24:26;;;;;;;17.77;16.27;;;21.90;99.90;;;;;;4995730;28;20551;-65
2021/07/24 06:26:52;;;;;;;19.20;17.50;;;21.80;99.90;;;;;;5013839;28;20179;-64
2021/07/24 06:29:17;;;;;;;16.93;15.13;;;21.70;99.90;;;;;;5013492;28;20536;-64
2021/07/24 06:31:43;;;;;;;17.20;15.60;;;21.60;99.90;;;;;;5013578;28;20207;-65
2021/07/24 06:34:08;;;;;;;17.50;15.90;;;21.60;99.90;;;;;;5013676;28;20221;-67
2021/07/24 06:36:34;;;;;;;19.90;14.93;;;21.70;99.90;;;;;;5013570;28;20246;-65
2021/07/24 06:38:59;;;;;;;16.87;15.37;;;22.00;99.90;;;;;;5013304;28;20648;-67
2021/07/24 06:41:26;;;;;;;17.50;15.80;;;22.30;99.90;;;;;;5013467;28;20178;-65
2021/07/24 06:43:53;;;;;;;17.37;15.77;;;22.50;99.90;;;;;;5013441;28;20198;-65
2021/07/24 06:46:20;;;;;;;16.73;15.03;;;22.70;99.90;;;;;;4991003;28;20450;-65
2021/07/24 06:48:45;;;;;;;16.30;14.80;;;22.90;99.90;;;;;;4993832;28;20415;-66
2021/07/24 06:51:11;;;;;;;16.83;15.33;;;23.00;99.90;;;;;;5013288;28;20465;-64
2021/07/24 06:53:37;;;;;;;17.63;16.03;;;23.10;99.90;;;;;;5013195;28;20187;-65
2021/07/24 06:56:03;;;;;;;15.77;14.23;;;23.10;99.90;;;;;;4995625;28;20414;-65
2021/07/24 06:58:29;;;;;;;49.63;44.93;;;23.30;99.90;;;;;;5013151;28;20553;-65
2021/07/24 07:00:55;;;;;;;18.37;16.57;;;23.40;99.90;;;;;;5013286;28;20530;-65
2021/07/24 07:03:20;;;;;;;18.50;16.67;;;23.50;99.90;;;;;;4994051;28;20210;-65
2021/07/24 07:05:46;;;;;;;17.03;15.30;;;23.60;99.90;;;;;;5008474;28;20480;-65
2021/07/24 07:08:11;;;;;;;19.60;17.70;;;23.60;99.90;;;;;;5012927;28;20226;-64
2021/07/24 07:10:37;;;;;;;19.13;17.33;;;23.60;99.90;;;;;;5012637;28;20199;-64
2021/07/24 07:13:03;;;;;;;17.00;15.50;;;23.70;99.90;;;;;;5013159;28;20505;-65
2021/07/24 07:15:28;;;;;;;15.90;14.50;;;23.70;99.90;;;;;;5012943;28;20169;-67
2021/07/24 07:17:55;;;;;;;15.73;14.17;;;23.70;99.90;;;;;;5012830;28;20203;-65
2021/07/24 07:20:20;;;;;;;16.53;15.07;;;23.50;99.90;;;;;;5012693;28;20175;-65
2021/07/24 07:22:46;;;;;;;16.70;14.97;;;23.20;99.90;;;;;;5012683;28;20501;-65
2021/07/24 07:25:12;;;;;;;15.27;13.97;;;23.30;99.90;;;;;;5012697;28;20629;-63
2021/07/24 07:27:41;;;;;;;16.67;15.13;;;23.40;99.90;;;;;;5012611;28;20175;-62
2021/07/24 07:30:08;;;;;;;20.03;18.13;;;23.30;99.90;;;;;;5012297;28;20512;-63
2021/07/24 07:32:34;;;;;;;17.80;16.10;;;23.00;99.90;;;;;;5012584;28;20426;-63
2021/07/24 07:34:59;;;;;;;17.60;15.67;;;22.90;99.90;;;;;;5012591;28;20901;-65
2021/07/24 07:37:25;;;;;;;17.93;15.00;;;22.80;99.90;;;;;;5012377;28;20183;-65
2021/07/24 07:39:50;;;;;;;18.80;16.93;;;22.70;99.90;;;;;;5011357;28;20317;-65
2021/07/24 07:42:16;;;;;;;17.73;16.13;;;22.60;99.90;;;;;;5011033;28;20229;-66
2021/07/24 07:44:42;;;;;;;19.20;16.60;;;22.60;99.90;;;;;;5012503;28;20268;-65
2021/07/24 07:47:08;;;;;;;17.90;16.17;;;22.30;99.90;;;;;;5012467;28;20171;-66
2021/07/24 07:49:33;;;;;;;17.47;15.30;;;22.10;99.90;;;;;;5012138;28;20171;-67
2021/07/24 07:51:59;;;;;;;15.87;14.47;;;22.00;99.90;;;;;;5012251;28;20564;-64
2021/07/24 07:54:24;;;;;;;17.50;15.90;;;21.90;99.90;;;;;;5004370;28;20573;-64
2021/07/24 07:56:50;;;;;;;17.60;15.90;;;21.90;99.90;;;;;;5008588;28;20187;-66
2021/07/24 07:59:15;;;;;;;16.90;15.30;;;21.80;99.90;;;;;;5009027;28;20175;-65
2021/07/24 08:01:41;;;;;;;18.70;16.03;;;21.80;99.90;;;;;;5008895;28;20210;-65
2021/07/24 08:04:06;;;;;;;18.63;16.80;;;21.80;99.90;;;;;;5008698;28;20211;-65
2021/07/24 08:06:32;;;;;;;20.13;18.20;;;21.90;99.90;;;;;;5009457;28;20178;-65
2021/07/24 08:08:57;;;;;;;18.93;15.20;;;21.90;99.90;;;;;;5008892;28;20183;-65
2021/07/24 08:11:24;;;;;;;17.47;15.67;;;21.90;99.90;;;;;;5012005;28;20698;-66
2021/07/24 08:13:49;;;;;;;16.30;14.80;;;21.90;99.90;;;;;;5011034;28;20191;-64
2021/07/24 08:16:16;;;;;;;17.10;15.53;;;21.80;99.90;;;;;;5012174;28;20428;-65
2021/07/24 08:18:42;;;;;;;17.07;15.50;;;21.90;99.90;;;;;;5011768;28;20162;-65
2021/07/24 08:21:08;;;;;;;20.10;15.40;;;22.00;99.90;;;;;;5012001;28;20844;-65
2021/07/24 08:23:33;;;;;;;16.83;15.23;;;22.20;99.90;;;;;;4994429;28;20438;-65
2021/07/24 08:25:59;;;;;;;18.23;16.53;;;22.30;99.90;;;;;;5012095;28;20175;-65
2021/07/24 08:28:29;;;;;;;20.80;16.27;;;22.50;99.90;;;;;;5011559;28;20178;-62
2021/07/24 08:30:55;;;;;;;17.07;15.53;;;22.80;99.90;;;;;;5011957;28;20665;-65
2021/07/24 08:33:20;;;;;;;18.27;16.57;;;23.10;99.90;;;;;;4994285;28;20503;-65
2021/07/24 08:35:47;;;;;;;17.50;15.90;;;23.40;99.90;;;;;;5011906;28;20509;-65
2021/07/24 08:38:12;;;;;;;17.47;15.87;;;23.50;99.90;;;;;;5011855;28;20173;-65
2021/07/24 08:40:38;;;;;;;17.00;15.53;;;23.70;99.90;;;;;;5011762;28;20422;-66
2021/07/24 08:43:05;;;;;;;16.57;15.07;;;23.90;99.90;;;;;;5011824;28;20664;-65
2021/07/24 08:45:31;;;;;;;17.67;15.97;;;23.90;99.90;;;;;;5011848;28;20424;-66
2021/07/24 08:47:59;;;;;;;18.30;16.67;;;24.20;99.90;;;;;;5011839;28;20899;-64
2021/07/24 08:50:24;;;;;;;17.13;15.33;;;24.70;99.90;;;;;;5011254;28;20457;-66
2021/07/24 08:52:54;;;;;;;16.20;14.70;;;25.20;99.90;;;;;;5011756;28;20778;-65
2021/07/24 08:55:24;;;;;;;15.90;14.60;;;25.70;99.90;;;;;;5011773;28;20175;-65
2021/07/24 08:57:57;;;;;;;17.30;15.80;;;26.20;99.90;;;;;;5011775;28;20464;-64
2021/07/24 09:00:23;;;;;;;16.80;15.03;;;26.00;99.90;;;;;;5011558;28;20422;-65
2021/07/24 09:02:52;;;;;;;16.60;14.83;;;26.20;99.90;;;;;;5011642;28;20833;-65
2021/07/24 09:05:18;;;;;;;15.57;14.10;;;26.10;99.90;;;;;;5011471;28;20461;-65
2021/07/24 09:07:46;;;;;;;16.53;14.93;;;26.20;99.90;;;;;;5011705;28;20467;-66
2021/07/24 09:10:13;;;;;;;17.47;15.83;;;25.90;99.90;;;;;;5011264;28;20462;-65
2021/07/24 09:12:40;;;;;;;16.60;15.00;;;25.50;99.90;;;;;;5011639;28;20410;-66
2021/07/24 09:15:08;;;;;;;17.27;15.57;;;25.40;99.90;;;;;;5011409;28;20442;-66
2021/07/24 09:17:34;;;;;;;17.40;15.70;;;25.80;99.90;;;;;;5011407;28;20453;-65
2021/07/24 09:20:00;;;;;;;18.13;16.20;;;26.10;99.90;;;;;;4993584;28;20453;-65
2021/07/24 09:22:47;;;;;;;18.33;16.40;;;26.40;99.90;;;;;;5011646;28;20717;-65
2021/07/24 09:25:17;;;;;;;17.47;16.00;;;26.50;99.90;;;;;;5011025;28;20441;-65
2021/07/24 09:27:45;;;;;;;18.40;16.53;;;26.00;99.90;;;;;;5014912;28;20449;-65
2021/07/24 09:30:23;;;;;;;17.63;16.03;;;25.80;99.90;;;;;;5014603;28;20884;-66
2021/07/24 09:33:07;;;;;;;18.27;16.07;;;26.00;99.90;;;;;;5014870;28;20448;-66
2021/07/24 09:35:43;;;;;;;19.87;18.10;;;26.40;99.90;;;;;;5014887;28;20417;-65
2021/07/24 09:38:12;;;;;;;17.77;15.23;;;27.10;99.90;;;;;;5014779;28;20453;-65
2021/07/24 09:40:39;;;;;;;16.03;14.73;;;27.10;99.90;;;;;;5014968;28;20449;-65
2021/07/24 09:43:32;;;;;;;17.53;15.83;;;27.30;99.90;;;;;;5014473;28;20936;-65
2021/07/24 09:46:17;;;;;;;16.77;15.27;;;27.40;99.90;;;;;;5014541;28;20421;-65
2021/07/24 09:48:47;;;;;;;16.73;15.17;;;27.60;99.90;;;;;;5014196;28;20422;-65
2021/07/24 09:51:13;;;;;;;17.10;15.47;;;28.20;99.90;;;;;;4995118;28;20484;-65
2021/07/24 09:53:43;;;;;;;16.80;15.30;;;28.90;99.90;;;;;;4994909;28;20442;-65
2021/07/24 09:56:17;;;;;;;15.50;14.00;;;29.10;99.90;;;;;;4994871;28;20485;-65
2021/07/24 09:58:46;;;;;;;15.17;13.93;;;28.60;99.90;;;;;;4994630;28;20418;-65
2021/07/24 10:01:18;;;;;;;15.47;14.17;;;28.90;99.90;;;;;;4994711;28;20430;-65
2021/07/24 10:03:48;;;;;;;16.50;15.20;;;29.80;99.90;;;;;;4995055;28;20807;-65
2021/07/24 10:06:14;;;;;;;17.00;15.40;;;29.70;99.70;;;;;;4994706;28;20770;-65
2021/07/24 10:08:46;;;;;;;17.57;15.93;;;29.50;99.50;;;;;;4994314;28;20505;-65
2021/07/24 10:11:12;;;;;;;13.90;12.70;;;29.10;99.90;;;;;;4994491;28;20477;-64
2021/07/24 10:13:39;;;;;;;14.60;13.20;;;29.20;99.90;;;;;;4994386;28;20457;-65
2021/07/24 10:16:05;;;;;;;15.63;14.23;;;29.40;99.90;;;;;;4994494;28;20167;-65
2021/07/24 10:18:31;;;;;;;14.40;13.10;;;29.60;99.90;;;;;;4994199;28;20441;-65
2021/07/24 10:20:56;;;;;;;13.97;12.67;;;30.50;98.50;;;;;;4976974;28;20932;-65
2021/07/24 10:23:24;;;;;;;12.27;11.27;;;30.40;96.00;;;;;;4994816;28;20200;-65
2021/07/24 10:26:13;;;;;;;11.07;10.03;;;29.80;96.10;;;;;;4994255;28;20167;-65
2021/07/24 10:28:38;;;;;;;11.80;10.57;;;30.60;94.60;;;;;;4994015;28;20423;-65
2021/07/24 10:31:09;;;;;;;15.60;11.67;;;31.40;92.90;;;;;;4976600;28;20458;-65
2021/07/24 10:33:36;;;;;;;12.03;11.03;;;30.80;93.80;;;;;;4994164;28;20195;-65
2021/07/24 10:36:12;;;;;;;10.30;9.50;;;30.30;93.40;;;;;;4993859;28;20426;-66
2021/07/24 10:38:54;;;;;;;11.53;10.50;;;30.30;92.60;;;;;;4994215;28;20772;-65
2021/07/24 10:41:23;;;;;;;10.23;9.40;;;30.00;92.20;;;;;;4994027;28;20422;-66
2021/07/24 10:44:05;;;;;;;10.57;9.50;;;29.60;92.90;;;;;;4993965;28;20951;-65
2021/07/24 10:46:46;;;;;;;11.43;10.43;;;29.30;93.30;;;;;;4993966;28;20484;-66
2021/07/24 10:49:33;;;;;;;10.20;9.33;;;30.20;92.30;;;;;;4997200;28;20508;-65
2021/07/24 10:52:03;;;;;;;9.73;8.83;;;31.20;90.30;;;;;;5013371;28;21000;-66
2021/07/24 10:54:32;;;;;;;9.70;8.70;;;31.60;88.40;;;;;;5013489;28;20429;-66
2021/07/24 10:56:58;;;;;;;9.40;8.47;;;32.10;85.80;;;;;;5013314;28;20784;-65
2021/07/24 10:59:25;;;;;;;9.87;8.97;;;31.70;85.80;;;;;;5012968;28;20414;-65
2021/07/24 11:01:57;;;;;;;9.20;8.27;;;31.90;85.50;;;;;;5013264;28;20476;-65
2021/07/24 11:04:38;;;;;;;9.70;8.67;;;31.80;83.30;;;;;;5013113;28;20465;-65
2021/07/24 11:07:12;;;;;;;10.20;9.23;;;31.00;85.50;;;;;;5013171;28;20429;-65
2021/07/24 11:09:39;;;;;;;10.60;7.53;;;30.40;86.60;;;;;;5012822;28;20420;-65
2021/07/24 11:12:06;;;;;;;9.73;8.70;;;30.50;84.10;;;;;;5012874;28;20460;-65
2021/07/24 11:14:37;;;;;;;10.10;9.20;;;30.20;85.70;;;;;;5013287;28;20947;-65
2021/07/24 11:17:06;;;;;;;10.20;9.20;;;29.70;86.40;;;;;;5013003;28;20755;-66
2021/07/24 11:19:36;;;;;;;10.17;9.27;;;29.30;87.80;;;;;;5013152;28;20410;-66
2021/07/24 11:22:10;;;;;;;10.07;9.07;;;28.80;88.50;;;;;;5012952;28;20437;-65
2021/07/24 11:24:36;;;;;;;9.97;9.03;;;28.70;89.80;;;;;;5012647;28;20453;-65
2021/07/24 11:27:02;;;;;;;10.87;8.53;;;28.40;89.80;;;;;;5012817;28;20422;-65
2021/07/24 11:29:27;;;;;;;9.90;7.87;;;28.00;90.50;;;;;;5012431;28;20254;-66
2021/07/24 11:31:53;;;;;;;11.10;8.80;;;27.80;91.00;;;;;;5012656;28;20256;-65
2021/07/24 11:34:22;;;;;;;9.97;8.60;;;27.60;92.10;;;;;;5012578;28;20194;-65
2021/07/24 11:36:53;;;;;;;10.13;9.07;;;27.40;92.20;;;;;;5012716;28;20175;-65
2021/07/24 11:39:26;;;;;;;9.53;8.63;;;27.20;92.60;;;;;;5012243;28;20985;-65
2021/07/24 11:41:53;;;;;;;10.37;9.47;;;26.90;93.00;;;;;;5012547;28;20422;-64
2021/07/24 11:44:27;;;;;;;9.17;8.13;;;26.70;93.70;;;;;;5012474;28;20438;-65
2021/07/24 11:47:03;;;;;;;10.27;9.27;;;26.70;94.30;;;;;;5012536;28;20420;-65
2021/07/24 11:49:32;;;;;;;9.77;8.80;;;26.70;94.40;;;;;;5005011;28;20427;-65
2021/07/24 11:51:58;;;;;;;11.70;9.97;;;26.80;94.60;;;;;;4992738;28;20872;-66
2021/07/24 11:54:28;;;;;;;10.33;9.43;;;27.10;94.70;;;;;;4992875;28;20434;-65
2021/07/24 11:56:53;;;;;;;11.20;10.10;;;27.50;94.20;;;;;;4992703;28;20432;-65
2021/07/24 11:59:19;;;;;;;9.73;8.93;;;27.70;94.20;;;;;;4992492;28;20434;-66
2021/07/24 12:01:44;;;;;;;11.57;9.93;;;28.30;93.50;;;;;;4992717;28;20258;-65
2021/07/24 12:04:12;;;;;;;10.30;9.40;;;29.00;92.70;;;;;;4992366;28;20752;-65
2021/07/24 12:06:39;;;;;;;11.13;10.23;;;29.50;92.70;;;;;;4992597;28;20168;-65
2021/07/24 12:09:06;;;;;;;10.77;9.90;;;30.90;91.30;;;;;;4992204;28;20550;-65
2021/07/24 12:11:32;;;;;;;9.70;8.87;;;33.20;87.40;;;;;;4992524;28;20462;-65
2021/07/24 12:14:07;;;;;;;12.77;11.40;;;33.90;81.90;;;;;;4992549;28;20442;-65
2021/07/24 12:16:38;;;;;;;11.93;10.17;;;33.90;81.20;;;;;;4992400;28;20418;-65
2021/07/24 12:19:17;;;;;;;10.93;10.03;;;33.50;81.20;;;;;;4992190;28;20966;-66
2021/07/24 12:21:44;;;;;;;13.20;9.90;;;33.10;81.10;;;;;;4992521;28;20419;-65
2021/07/24 12:24:10;;;;;;;11.23;10.27;;;31.50;82.40;;;;;;4992406;28;20489;-65
2021/07/24 12:26:39;;;;;;;10.80;9.83;;;31.00;85.50;;;;;;4992420;28;20987;-66
2021/07/24 12:29:10;;;;;;;11.17;10.17;;;30.60;86.40;;;;;;4992153;28;20180;-66
2021/07/24 12:31:56;;;;;;;11.13;9.73;;;30.50;85.80;;;;;;4992278;28;20482;-65
2021/07/24 12:34:23;;;;;;;10.90;9.90;;;31.30;84.90;;;;;;4992378;28;20449;-66